Lagoa Real, Brazil
Current Conditions -  °F | °C
As of 4:30 AM on Friday 31 Oct 2014 (Local Time) from SBQV Reporting Station
Broken Clouds Broken Clouds  
Wind Chill: 64°   Ceiling: 1000
Heat Index: 64°   Visibility: 6mi
Dew Point: 64°   Wind: 5mph
Humidity: 100%   Direction: 110°ESE
Pressure: 30.12"   Gusts: NA
Location:  14.04°S, 42.15°W
Report Text: SBQV 310730Z 11004KT 9999 BKN010 18/18 Q1020
Loading
Personal Weather Stations






























Interactive Weather Map
Tropical Storm Tracking
New forecast layout! Learn more

10-Day Weather Forecast

Advertisements
Track Severe Weather on mobile